Ahtari, Finland

9:45 PM EEST on October 24, 2014 (GMT +0300)
Lehtimaki | Change Station
CLOSE
Current Station
Personal Weather Station
Location: Alajarvi, LANSI-SUOMI
Elevation: 669 ft
Nearby Weather Stations

Elev 669 ft 62.82 °N, 23.95 °E | Updated 10 seconds ago

Light Rain Showers
Light Showers Rain
29.3 °F
Feels Like 21 °F
N
8.3
Wind Variable Wind from SSE
Gusts 20.7 mph

Today
High -- | Low -- °F
--% Chance of Precip.
Yesterday
High -- | Low -- °F
Precip. -- in
8:33 AM 5:40 PM
New Moon, 1% visible
Pressure 30.12 in
Visibility 6.2 miles
Clouds Overcast 2300 ft
Windchill 21 °F
Dew Point 27 °F
Humidity 90%
Rainfall 0.00 in
Snow Depth Not available.
UV 0 out of 12
Pollen Not available.
Air Quality Not available.
Flu Activity Not available.
METAR EFSI 241820Z AUTO 15011KT 110V190 9999 -SHRA OVC023 01/M01 Q1020

More Conditions Fewer Conditions

Pressure 30.12 in
Visibility 6.2 miles
Clouds Overcast 2300 ft
Windchill 21 °F
Dew Point 27 °F
Humidity 90%
Rainfall 0.00 in
Snow Depth Not available.
UV 0 out of 12
Pollen Not available.
Air Quality Not available.
Flu Activity Not available.
METAR EFSI 241820Z AUTO 15011KT 110V190 9999 -SHRA OVC023 01/M01 Q1020

More Conditions Fewer Conditions

10-Day Weather Forecast

Almanac

Astronomy

Oct. 24, 2014 Rise Set
Actual Time 8:33 AM EEST 5:40 PM EEST
Civil Twilight 7:45 AM EEST 6:27 PM EEST
Nautical Twilight 6:53 AM EEST 7:20 PM EEST
Astronomical Twilight 6:00 AM EEST 8:12 PM EEST
Moon 9:00 AM EEST 5:56 PM EEST
Length of Visible Light 10h 41m
Length of Day
9h 06m
Tomorrow will be 5m 58s shorter.
New Moon, 1% of the Moon is Illuminated
Today
New Moon
Oct 30
First Quarter
Nov 6
Full
Nov 14
Last Quarter
Nov 22
New

Today's Extremes

Country Highs Country Lows

Community

WunderPhotos

Upload Photos

1,764,634 photos uploaded!

WunderBlogs® & News

Nearby

Snow Depth

Not available.

Earthquake Activity

City Distance Mag. Time & Date
No recent earthquake activity has been reported nearby.
Minimum magnitude displayed is 2.5.

Coastal Water Temperatures

Place Temperature
No Stations Reporting

Nearby Weather Stations